sensor_id;sensor_type;location;lat;lon;timestamp;P1;durP1;ratioP1;P2;durP2;ratioP2
6376;SDS011;3221;48.858;10.128;2022-12-24T00:01:03;5.93;;;1.70;;
6376;SDS011;3221;48.858;10.128;2022-12-24T00:03:31;5.57;;;2.13;;
6376;SDS011;3221;48.858;10.128;2022-12-24T00:06:02;8.17;;;2.70;;
6376;SDS011;3221;48.858;10.128;2022-12-24T00:08:31;6.33;;;2.57;;
6376;SDS011;3221;48.858;10.128;2022-12-24T00:10:57;4.97;;;2.40;;
6376;SDS011;3221;48.858;10.128;2022-12-24T00:13:24;5.83;;;2.47;;
6376;SDS011;3221;48.858;10.128;2022-12-24T00:15:51;7.10;;;2.27;;
6376;SDS011;3221;48.858;10.128;2022-12-24T00:18:18;3.93;;;1.90;;
6376;SDS011;3221;48.858;10.128;2022-12-24T00:20:46;3.40;;;1.80;;
6376;SDS011;3221;48.858;10.128;2022-12-24T00:23:14;4.33;;;1.80;;
6376;SDS011;3221;48.858;10.128;2022-12-24T00:25:41;4.07;;;1.90;;
6376;SDS011;3221;48.858;10.128;2022-12-24T00:28:09;4.30;;;1.97;;
6376;SDS011;3221;48.858;10.128;2022-12-24T00:30:36;4.00;;;1.60;;
6376;SDS011;3221;48.858;10.128;2022-12-24T00:33:04;2.77;;;1.73;;
6376;SDS011;3221;48.858;10.128;2022-12-24T00:35:34;3.67;;;1.70;;
6376;SDS011;3221;48.858;10.128;2022-12-24T00:38:03;4.47;;;1.97;;
6376;SDS011;3221;48.858;10.128;2022-12-24T00:40:30;3.23;;;2.13;;
6376;SDS011;3221;48.858;10.128;2022-12-24T00:42:57;3.27;;;1.90;;
6376;SDS011;3221;48.858;10.128;2022-12-24T00:45:24;5.13;;;1.93;;
6376;SDS011;3221;48.858;10.128;2022-12-24T00:47:54;3.97;;;1.93;;
6376;SDS011;3221;48.858;10.128;2022-12-24T00:50:21;3.33;;;1.83;;
6376;SDS011;3221;48.858;10.128;2022-12-24T00:52:48;4.70;;;2.30;;
6376;SDS011;3221;48.858;10.128;2022-12-24T00:55:15;4.43;;;2.07;;
6376;SDS011;3221;48.858;10.128;2022-12-24T00:57:42;6.00;;;2.20;;
6376;SDS011;3221;48.858;10.128;2022-12-24T01:00:08;3.27;;;2.20;;
6376;SDS011;3221;48.858;10.128;2022-12-24T01:02:35;3.63;;;1.80;;
6376;SDS011;3221;48.858;10.128;2022-12-24T01:05:03;4.33;;;1.53;;
6376;SDS011;3221;48.858;10.128;2022-12-24T01:07:37;1.90;;;1.70;;
6376;SDS011;3221;48.858;10.128;2022-12-24T01:10:06;4.73;;;1.70;;
6376;SDS011;3221;48.858;10.128;2022-12-24T01:12:33;4.10;;;1.63;;
6376;SDS011;3221;48.858;10.128;2022-12-24T01:15:01;4.67;;;1.77;;
6376;SDS011;3221;48.858;10.128;2022-12-24T01:17:30;2.00;;;1.50;;
6376;SDS011;3221;48.858;10.128;2022-12-24T01:19:57;3.03;;;1.67;;
6376;SDS011;3221;48.858;10.128;2022-12-24T01:22:24;4.17;;;1.50;;
6376;SDS011;3221;48.858;10.128;2022-12-24T01:24:51;3.97;;;1.73;;
6376;SDS011;3221;48.858;10.128;2022-12-24T01:27:18;2.07;;;1.67;;
6376;SDS011;3221;48.858;10.128;2022-12-24T01:29:45;4.30;;;1.73;;
6376;SDS011;3221;48.858;10.128;2022-12-24T01:32:12;6.30;;;1.80;;
6376;SDS011;3221;48.858;10.128;2022-12-24T01:34:39;3.57;;;1.87;;
6376;SDS011;3221;48.858;10.128;2022-12-24T01:37:06;2.43;;;1.60;;
6376;SDS011;3221;48.858;10.128;2022-12-24T01:39:33;4.20;;;1.73;;
6376;SDS011;3221;48.858;10.128;2022-12-24T01:42:00;2.37;;;1.50;;
6376;SDS011;3221;48.858;10.128;2022-12-24T01:44:47;7.40;;;1.80;;
6376;SDS011;3221;48.858;10.128;2022-12-24T01:49:51;5.33;;;1.70;;
6376;SDS011;3221;48.858;10.128;2022-12-24T01:52:26;3.43;;;2.00;;
6376;SDS011;3221;48.858;10.128;2022-12-24T01:55:00;4.87;;;1.80;;
6376;SDS011;3221;48.858;10.128;2022-12-24T01:57:35;2.70;;;1.40;;
6376;SDS011;3221;48.858;10.128;2022-12-24T02:00:12;6.40;;;1.70;;
6376;SDS011;3221;48.858;10.128;2022-12-24T02:02:42;2.50;;;1.57;;
6376;SDS011;3221;48.858;10.128;2022-12-24T02:05:20;3.97;;;1.60;;
6376;SDS011;3221;48.858;10.128;2022-12-24T02:07:51;3.10;;;1.67;;
6376;SDS011;3221;48.858;10.128;2022-12-24T02:10:18;4.97;;;1.73;;
6376;SDS011;3221;48.858;10.128;2022-12-24T02:12:45;4.03;;;1.60;;
6376;SDS011;3221;48.858;10.128;2022-12-24T02:15:13;3.90;;;1.63;;
6376;SDS011;3221;48.858;10.128;2022-12-24T02:23:55;5.17;;;1.60;;
6376;SDS011;3221;48.858;10.128;2022-12-24T02:37:55;2.70;;;1.40;;
6376;SDS011;3221;48.858;10.128;2022-12-24T02:40:29;2.20;;;1.30;;
6376;SDS011;3221;48.858;10.128;2022-12-24T02:43:03;2.30;;;1.40;;
6376;SDS011;3221;48.858;10.128;2022-12-24T02:45:36;3.10;;;1.50;;
6376;SDS011;3221;48.858;10.128;2022-12-24T02:48:06;4.50;;;1.90;;
6376;SDS011;3221;48.858;10.128;2022-12-24T02:50:35;3.73;;;1.73;;
6376;SDS011;3221;48.858;10.128;2022-12-24T02:53:02;4.20;;;1.70;;
6376;SDS011;3221;48.858;10.128;2022-12-24T03:01:00;3.33;;;1.43;;
6376;SDS011;3221;48.858;10.128;2022-12-24T03:03:57;6.67;;;2.20;;
6376;SDS011;3221;48.858;10.128;2022-12-24T03:09:08;5.00;;;1.83;;
6376;SDS011;3221;48.858;10.128;2022-12-24T03:11:58;2.47;;;1.40;;
6376;SDS011;3221;48.858;10.128;2022-12-24T03:14:29;4.43;;;2.07;;
6376;SDS011;3221;48.858;10.128;2022-12-24T03:16:59;5.07;;;2.20;;
6376;SDS011;3221;48.858;10.128;2022-12-24T03:19:29;2.83;;;1.90;;
6376;SDS011;3221;48.858;10.128;2022-12-24T03:21:57;12.33;;;2.30;;
6376;SDS011;3221;48.858;10.128;2022-12-24T03:24:27;6.47;;;2.17;;
6376;SDS011;3221;48.858;10.128;2022-12-24T03:26:54;5.17;;;2.20;;
6376;SDS011;3221;48.858;10.128;2022-12-24T03:29:21;5.43;;;2.40;;
6376;SDS011;3221;48.858;10.128;2022-12-24T03:31:49;5.97;;;2.20;;
6376;SDS011;3221;48.858;10.128;2022-12-24T03:34:18;5.77;;;1.90;;
6376;SDS011;3221;48.858;10.128;2022-12-24T03:36:45;8.40;;;2.33;;
6376;SDS011;3221;48.858;10.128;2022-12-24T03:39:13;9.33;;;1.83;;
6376;SDS011;3221;48.858;10.128;2022-12-24T03:41:40;6.77;;;2.37;;
6376;SDS011;3221;48.858;10.128;2022-12-24T03:44:07;4.90;;;2.00;;
6376;SDS011;3221;48.858;10.128;2022-12-24T03:46:34;8.00;;;2.77;;
6376;SDS011;3221;48.858;10.128;2022-12-24T03:49:01;3.97;;;2.30;;
6376;SDS011;3221;48.858;10.128;2022-12-24T03:51:28;5.70;;;2.30;;
6376;SDS011;3221;48.858;10.128;2022-12-24T03:53:55;5.67;;;2.43;;
6376;SDS011;3221;48.858;10.128;2022-12-24T03:56:23;8.67;;;2.80;;
6376;SDS011;3221;48.858;10.128;2022-12-24T03:58:50;9.60;;;2.37;;
6376;SDS011;3221;48.858;10.128;2022-12-24T04:01:17;7.23;;;2.43;;
6376;SDS011;3221;48.858;10.128;2022-12-24T04:03:44;8.13;;;2.10;;
6376;SDS011;3221;48.858;10.128;2022-12-24T04:06:12;7.57;;;2.57;;
6376;SDS011;3221;48.858;10.128;2022-12-24T04:08:41;7.77;;;2.30;;
6376;SDS011;3221;48.858;10.128;2022-12-24T04:11:13;6.80;;;2.20;;
6376;SDS011;3221;48.858;10.128;2022-12-24T04:13:41;6.03;;;2.67;;
6376;SDS011;3221;48.858;10.128;2022-12-24T04:16:10;6.90;;;2.03;;
6376;SDS011;3221;48.858;10.128;2022-12-24T04:18:39;9.00;;;2.20;;
6376;SDS011;3221;48.858;10.128;2022-12-24T04:21:06;8.57;;;2.50;;
6376;SDS011;3221;48.858;10.128;2022-12-24T04:23:34;9.13;;;2.33;;
6376;SDS011;3221;48.858;10.128;2022-12-24T04:26:02;8.10;;;2.30;;
6376;SDS011;3221;48.858;10.128;2022-12-24T04:28:31;6.20;;;2.10;;
6376;SDS011;3221;48.858;10.128;2022-12-24T04:31:00;5.83;;;2.20;;
6376;SDS011;3221;48.858;10.128;2022-12-24T04:33:28;7.23;;;3.00;;
6376;SDS011;3221;48.858;10.128;2022-12-24T04:35:59;6.47;;;2.37;;
6376;SDS011;3221;48.858;10.128;2022-12-24T04:38:27;8.40;;;2.87;;
6376;SDS011;3221;48.858;10.128;2022-12-24T04:41:02;8.17;;;2.80;;
6376;SDS011;3221;48.858;10.128;2022-12-24T04:43:34;6.00;;;2.97;;
6376;SDS011;3221;48.858;10.128;2022-12-24T04:46:08;6.57;;;2.90;;
6376;SDS011;3221;48.858;10.128;2022-12-24T04:48:36;6.63;;;2.73;;
6376;SDS011;3221;48.858;10.128;2022-12-24T04:51:04;8.60;;;3.40;;
6376;SDS011;3221;48.858;10.128;2022-12-24T04:53:32;7.73;;;2.70;;
6376;SDS011;3221;48.858;10.128;2022-12-24T04:56:01;8.40;;;2.80;;
6376;SDS011;3221;48.858;10.128;2022-12-24T04:58:28;5.10;;;2.40;;
6376;SDS011;3221;48.858;10.128;2022-12-24T05:00:55;7.33;;;2.67;;
6376;SDS011;3221;48.858;10.128;2022-12-24T05:03:22;8.10;;;2.57;;
6376;SDS011;3221;48.858;10.128;2022-12-24T05:05:49;8.00;;;2.50;;
6376;SDS011;3221;48.858;10.128;2022-12-24T05:08:23;7.87;;;2.50;;
6376;SDS011;3221;48.858;10.128;2022-12-24T05:10:56;8.17;;;2.40;;
6376;SDS011;3221;48.858;10.128;2022-12-24T05:13:24;7.43;;;2.20;;
6376;SDS011;3221;48.858;10.128;2022-12-24T05:16:03;8.27;;;2.20;;
6376;SDS011;3221;48.858;10.128;2022-12-24T05:18:30;7.90;;;2.63;;
6376;SDS011;3221;48.858;10.128;2022-12-24T05:20:57;8.07;;;3.07;;
6376;SDS011;3221;48.858;10.128;2022-12-24T05:23:24;6.17;;;3.00;;
6376;SDS011;3221;48.858;10.128;2022-12-24T05:28:51;7.90;;;2.70;;
6376;SDS011;3221;48.858;10.128;2022-12-24T05:31:20;6.27;;;2.10;;
6376;SDS011;3221;48.858;10.128;2022-12-24T05:33:48;8.40;;;3.00;;
6376;SDS011;3221;48.858;10.128;2022-12-24T05:36:15;9.37;;;2.90;;
6376;SDS011;3221;48.858;10.128;2022-12-24T05:38:42;6.93;;;2.87;;
6376;SDS011;3221;48.858;10.128;2022-12-24T05:41:09;9.97;;;3.63;;
6376;SDS011;3221;48.858;10.128;2022-12-24T05:43:36;9.33;;;3.67;;
6376;SDS011;3221;48.858;10.128;2022-12-24T05:46:06;9.77;;;3.30;;
6376;SDS011;3221;48.858;10.128;2022-12-24T05:48:34;7.67;;;2.97;;
6376;SDS011;3221;48.858;10.128;2022-12-24T05:51:04;9.13;;;2.80;;
6376;SDS011;3221;48.858;10.128;2022-12-24T05:53:33;7.97;;;2.77;;
6376;SDS011;3221;48.858;10.128;2022-12-24T05:56:07;7.57;;;2.73;;
6376;SDS011;3221;48.858;10.128;2022-12-24T05:58:36;6.03;;;2.67;;
6376;SDS011;3221;48.858;10.128;2022-12-24T06:01:04;7.03;;;2.50;;
6376;SDS011;3221;48.858;10.128;2022-12-24T06:03:32;7.27;;;2.50;;
6376;SDS011;3221;48.858;10.128;2022-12-24T06:08:27;7.03;;;2.90;;
6376;SDS011;3221;48.858;10.128;2022-12-24T06:10:58;6.67;;;3.00;;
6376;SDS011;3221;48.858;10.128;2022-12-24T06:13:27;6.43;;;2.90;;
6376;SDS011;3221;48.858;10.128;2022-12-24T06:15:55;6.60;;;3.30;;
6376;SDS011;3221;48.858;10.128;2022-12-24T06:18:23;6.97;;;3.70;;
6376;SDS011;3221;48.858;10.128;2022-12-24T06:20:50;5.23;;;2.63;;
6376;SDS011;3221;48.858;10.128;2022-12-24T06:23:18;6.13;;;3.00;;
6376;SDS011;3221;48.858;10.128;2022-12-24T06:25:46;5.23;;;2.70;;
6376;SDS011;3221;48.858;10.128;2022-12-24T06:28:13;6.20;;;2.43;;
6376;SDS011;3221;48.858;10.128;2022-12-24T06:30:40;6.60;;;2.63;;
6376;SDS011;3221;48.858;10.128;2022-12-24T06:33:11;5.97;;;2.63;;
6376;SDS011;3221;48.858;10.128;2022-12-24T06:35:38;6.17;;;2.50;;
6376;SDS011;3221;48.858;10.128;2022-12-24T06:38:05;5.93;;;2.30;;
6376;SDS011;3221;48.858;10.128;2022-12-24T06:40:32;6.27;;;2.63;;
6376;SDS011;3221;48.858;10.128;2022-12-24T06:42:59;4.97;;;2.67;;
6376;SDS011;3221;48.858;10.128;2022-12-24T06:45:26;8.17;;;2.80;;
6376;SDS011;3221;48.858;10.128;2022-12-24T06:47:52;10.07;;;2.40;;
6376;SDS011;3221;48.858;10.128;2022-12-24T06:50:19;5.73;;;2.40;;
6376;SDS011;3221;48.858;10.128;2022-12-24T06:52:46;5.47;;;2.47;;
6376;SDS011;3221;48.858;10.128;2022-12-24T06:55:13;5.73;;;2.27;;
6376;SDS011;3221;48.858;10.128;2022-12-24T06:57:40;5.03;;;2.53;;
6376;SDS011;3221;48.858;10.128;2022-12-24T07:00:07;4.70;;;2.20;;
6376;SDS011;3221;48.858;10.128;2022-12-24T07:02:42;5.47;;;2.33;;
6376;SDS011;3221;48.858;10.128;2022-12-24T07:05:10;8.50;;;2.57;;
6376;SDS011;3221;48.858;10.128;2022-12-24T07:07:38;5.40;;;2.20;;
6376;SDS011;3221;48.858;10.128;2022-12-24T07:10:06;5.37;;;2.43;;
6376;SDS011;3221;48.858;10.128;2022-12-24T07:12:36;7.17;;;2.60;;
6376;SDS011;3221;48.858;10.128;2022-12-24T07:15:03;6.50;;;2.07;;
6376;SDS011;3221;48.858;10.128;2022-12-24T07:17:30;5.93;;;2.50;;
6376;SDS011;3221;48.858;10.128;2022-12-24T07:19:57;5.60;;;2.20;;
6376;SDS011;3221;48.858;10.128;2022-12-24T07:22:24;5.87;;;2.20;;
6376;SDS011;3221;48.858;10.128;2022-12-24T07:24:51;7.93;;;2.57;;
6376;SDS011;3221;48.858;10.128;2022-12-24T07:27:18;5.30;;;2.40;;
6376;SDS011;3221;48.858;10.128;2022-12-24T07:29:45;6.83;;;2.50;;
6376;SDS011;3221;48.858;10.128;2022-12-24T07:32:12;4.07;;;2.20;;
6376;SDS011;3221;48.858;10.128;2022-12-24T07:34:38;6.23;;;2.50;;
6376;SDS011;3221;48.858;10.128;2022-12-24T07:37:06;4.37;;;2.50;;
6376;SDS011;3221;48.858;10.128;2022-12-24T07:39:33;7.10;;;2.40;;
6376;SDS011;3221;48.858;10.128;2022-12-24T07:41:59;5.90;;;2.30;;
6376;SDS011;3221;48.858;10.128;2022-12-24T07:44:26;5.63;;;2.40;;
6376;SDS011;3221;48.858;10.128;2022-12-24T07:46:53;7.93;;;2.53;;
6376;SDS011;3221;48.858;10.128;2022-12-24T07:49:20;4.73;;;2.33;;
6376;SDS011;3221;48.858;10.128;2022-12-24T07:51:47;4.93;;;2.17;;
6376;SDS011;3221;48.858;10.128;2022-12-24T07:54:14;5.07;;;2.20;;
6376;SDS011;3221;48.858;10.128;2022-12-24T07:56:41;5.10;;;2.10;;
6376;SDS011;3221;48.858;10.128;2022-12-24T07:59:09;6.30;;;2.20;;
6376;SDS011;3221;48.858;10.128;2022-12-24T08:01:39;5.60;;;2.17;;
6376;SDS011;3221;48.858;10.128;2022-12-24T08:04:06;7.17;;;2.73;;
6376;SDS011;3221;48.858;10.128;2022-12-24T08:06:33;6.13;;;2.13;;
6376;SDS011;3221;48.858;10.128;2022-12-24T08:08:59;7.70;;;2.10;;
6376;SDS011;3221;48.858;10.128;2022-12-24T08:11:26;7.30;;;2.80;;
6376;SDS011;3221;48.858;10.128;2022-12-24T08:13:53;7.27;;;2.47;;
6376;SDS011;3221;48.858;10.128;2022-12-24T08:16:20;5.23;;;2.40;;
6376;SDS011;3221;48.858;10.128;2022-12-24T08:18:47;7.37;;;2.43;;
6376;SDS011;3221;48.858;10.128;2022-12-24T08:21:14;6.50;;;2.50;;
6376;SDS011;3221;48.858;10.128;2022-12-24T08:23:41;6.80;;;2.53;;
6376;SDS011;3221;48.858;10.128;2022-12-24T08:26:09;5.53;;;2.50;;
6376;SDS011;3221;48.858;10.128;2022-12-24T08:28:36;5.13;;;2.50;;
6376;SDS011;3221;48.858;10.128;2022-12-24T08:31:03;5.93;;;2.77;;
6376;SDS011;3221;48.858;10.128;2022-12-24T08:33:30;6.60;;;2.97;;
6376;SDS011;3221;48.858;10.128;2022-12-24T08:35:59;4.83;;;2.60;;
6376;SDS011;3221;48.858;10.128;2022-12-24T08:38:27;8.87;;;3.00;;
6376;SDS011;3221;48.858;10.128;2022-12-24T08:40:54;9.03;;;3.23;;
6376;SDS011;3221;48.858;10.128;2022-12-24T08:43:21;5.57;;;2.80;;
6376;SDS011;3221;48.858;10.128;2022-12-24T08:45:50;7.70;;;3.00;;
6376;SDS011;3221;48.858;10.128;2022-12-24T08:48:18;7.03;;;3.00;;
6376;SDS011;3221;48.858;10.128;2022-12-24T08:50:45;8.50;;;2.93;;
6376;SDS011;3221;48.858;10.128;2022-12-24T08:53:12;7.13;;;2.97;;
6376;SDS011;3221;48.858;10.128;2022-12-24T08:55:39;8.00;;;3.00;;
6376;SDS011;3221;48.858;10.128;2022-12-24T08:58:06;7.97;;;2.77;;
6376;SDS011;3221;48.858;10.128;2022-12-24T09:00:32;6.27;;;2.70;;
6376;SDS011;3221;48.858;10.128;2022-12-24T09:02:59;7.03;;;2.67;;
6376;SDS011;3221;48.858;10.128;2022-12-24T09:05:26;7.30;;;2.60;;
6376;SDS011;3221;48.858;10.128;2022-12-24T09:07:54;7.47;;;2.50;;
6376;SDS011;3221;48.858;10.128;2022-12-24T09:10:21;6.93;;;2.70;;
6376;SDS011;3221;48.858;10.128;2022-12-24T09:12:48;10.13;;;3.17;;
6376;SDS011;3221;48.858;10.128;2022-12-24T09:15:16;7.23;;;3.07;;
6376;SDS011;3221;48.858;10.128;2022-12-24T09:17:43;7.23;;;2.70;;
6376;SDS011;3221;48.858;10.128;2022-12-24T09:20:10;7.13;;;2.87;;
6376;SDS011;3221;48.858;10.128;2022-12-24T09:22:37;8.57;;;3.00;;
6376;SDS011;3221;48.858;10.128;2022-12-24T09:25:05;6.03;;;2.53;;
6376;SDS011;3221;48.858;10.128;2022-12-24T09:27:34;7.40;;;2.83;;
6376;SDS011;3221;48.858;10.128;2022-12-24T09:30:00;7.30;;;3.00;;
6376;SDS011;3221;48.858;10.128;2022-12-24T09:32:28;7.90;;;3.03;;
6376;SDS011;3221;48.858;10.128;2022-12-24T09:34:54;6.10;;;3.10;;
6376;SDS011;3221;48.858;10.128;2022-12-24T09:37:21;7.27;;;3.40;;
6376;SDS011;3221;48.858;10.128;2022-12-24T09:39:48;6.63;;;2.90;;
6376;SDS011;3221;48.858;10.128;2022-12-24T09:42:27;4.90;;;2.70;;
6376;SDS011;3221;48.858;10.128;2022-12-24T09:45:15;6.07;;;3.20;;
6376;SDS011;3221;48.858;10.128;2022-12-24T09:47:49;8.13;;;3.10;;
6376;SDS011;3221;48.858;10.128;2022-12-24T09:53:03;7.90;;;3.30;;
6376;SDS011;3221;48.858;10.128;2022-12-24T09:55:47;6.47;;;3.07;;
6376;SDS011;3221;48.858;10.128;2022-12-24T09:58:32;6.07;;;3.20;;
6376;SDS011;3221;48.858;10.128;2022-12-24T10:01:02;7.27;;;3.17;;
6376;SDS011;3221;48.858;10.128;2022-12-24T10:03:29;9.40;;;2.93;;
6376;SDS011;3221;48.858;10.128;2022-12-24T10:06:00;6.23;;;2.80;;
6376;SDS011;3221;48.858;10.128;2022-12-24T10:11:53;7.40;;;2.97;;
6376;SDS011;3221;48.858;10.128;2022-12-24T10:17:26;7.40;;;2.80;;
6376;SDS011;3221;48.858;10.128;2022-12-24T10:22:50;6.90;;;2.57;;
6376;SDS011;3221;48.858;10.128;2022-12-24T10:28:41;9.53;;;2.90;;
6376;SDS011;3221;48.858;10.128;2022-12-24T10:31:11;7.93;;;2.93;;
6376;SDS011;3221;48.858;10.128;2022-12-24T10:33:40;9.40;;;3.20;;
6376;SDS011;3221;48.858;10.128;2022-12-24T10:36:10;10.30;;;3.03;;
6376;SDS011;3221;48.858;10.128;2022-12-24T10:38:44;10.80;;;3.10;;
6376;SDS011;3221;48.858;10.128;2022-12-24T10:41:12;11.30;;;2.90;;
6376;SDS011;3221;48.858;10.128;2022-12-24T10:43:40;8.23;;;2.60;;
6376;SDS011;3221;48.858;10.128;2022-12-24T10:48:44;9.87;;;3.20;;
6376;SDS011;3221;48.858;10.128;2022-12-24T10:51:29;5.77;;;3.10;;
6376;SDS011;3221;48.858;10.128;2022-12-24T10:54:12;10.70;;;3.80;;
6376;SDS011;3221;48.858;10.128;2022-12-24T10:56:54;9.40;;;3.53;;
6376;SDS011;3221;48.858;10.128;2022-12-24T10:59:24;12.17;;;4.00;;
6376;SDS011;3221;48.858;10.128;2022-12-24T11:01:56;9.57;;;4.17;;
6376;SDS011;3221;48.858;10.128;2022-12-24T11:04:25;15.77;;;4.67;;
6376;SDS011;3221;48.858;10.128;2022-12-24T11:06:57;11.60;;;4.47;;
6376;SDS011;3221;48.858;10.128;2022-12-24T11:09:31;11.70;;;3.77;;
6376;SDS011;3221;48.858;10.128;2022-12-24T11:12:05;12.40;;;4.00;;
6376;SDS011;3221;48.858;10.128;2022-12-24T11:14:41;11.67;;;4.13;;
6376;SDS011;3221;48.858;10.128;2022-12-24T11:17:17;9.80;;;3.47;;
6376;SDS011;3221;48.858;10.128;2022-12-24T11:19:47;13.07;;;4.10;;
6376;SDS011;3221;48.858;10.128;2022-12-24T11:22:33;11.03;;;3.73;;
6376;SDS011;3221;48.858;10.128;2022-12-24T11:27:38;8.03;;;2.90;;
6376;SDS011;3221;48.858;10.128;2022-12-24T11:32:41;6.30;;;2.87;;
6376;SDS011;3221;48.858;10.128;2022-12-24T11:35:14;9.47;;;3.37;;
6376;SDS011;3221;48.858;10.128;2022-12-24T11:40:32;6.83;;;2.47;;
6376;SDS011;3221;48.858;10.128;2022-12-24T11:43:10;11.03;;;2.90;;
6376;SDS011;3221;48.858;10.128;2022-12-24T11:45:47;7.00;;;2.57;;
6376;SDS011;3221;48.858;10.128;2022-12-24T11:48:37;9.20;;;2.80;;
6376;SDS011;3221;48.858;10.128;2022-12-24T11:51:04;8.80;;;2.77;;
6376;SDS011;3221;48.858;10.128;2022-12-24T11:53:37;8.53;;;2.63;;
6376;SDS011;3221;48.858;10.128;2022-12-24T11:56:26;7.07;;;3.07;;
6376;SDS011;3221;48.858;10.128;2022-12-24T11:58:55;13.93;;;3.37;;
6376;SDS011;3221;48.858;10.128;2022-12-24T12:06:52;9.90;;;3.40;;
6376;SDS011;3221;48.858;10.128;2022-12-24T12:09:25;7.30;;;2.40;;
6376;SDS011;3221;48.858;10.128;2022-12-24T12:12:06;9.97;;;2.63;;
6376;SDS011;3221;48.858;10.128;2022-12-24T12:14:42;7.23;;;2.53;;
6376;SDS011;3221;48.858;10.128;2022-12-24T12:17:31;8.20;;;2.77;;
6376;SDS011;3221;48.858;10.128;2022-12-24T12:28:34;8.73;;;3.60;;
6376;SDS011;3221;48.858;10.128;2022-12-24T12:34:08;8.63;;;4.03;;
6376;SDS011;3221;48.858;10.128;2022-12-24T12:36:42;10.63;;;4.20;;
6376;SDS011;3221;48.858;10.128;2022-12-24T12:39:13;8.83;;;3.80;;
6376;SDS011;3221;48.858;10.128;2022-12-24T12:44:52;10.70;;;3.67;;
6376;SDS011;3221;48.858;10.128;2022-12-24T12:52:59;10.47;;;3.93;;
6376;SDS011;3221;48.858;10.128;2022-12-24T12:55:56;19.57;;;9.13;;
6376;SDS011;3221;48.858;10.128;2022-12-24T12:58:31;15.77;;;7.37;;
6376;SDS011;3221;48.858;10.128;2022-12-24T13:01:10;14.77;;;6.37;;
6376;SDS011;3221;48.858;10.128;2022-12-24T13:11:38;10.77;;;5.30;;
6376;SDS011;3221;48.858;10.128;2022-12-24T13:22:35;12.07;;;6.43;;
6376;SDS011;3221;48.858;10.128;2022-12-24T13:25:02;12.20;;;6.70;;
6376;SDS011;3221;48.858;10.128;2022-12-24T13:27:33;15.53;;;7.13;;
6376;SDS011;3221;48.858;10.128;2022-12-24T13:30:02;15.07;;;5.80;;
6376;SDS011;3221;48.858;10.128;2022-12-24T13:32:52;14.20;;;6.30;;
6376;SDS011;3221;48.858;10.128;2022-12-24T13:37:47;10.30;;;5.73;;
6376;SDS011;3221;48.858;10.128;2022-12-24T13:58:46;12.30;;;4.17;;
6376;SDS011;3221;48.858;10.128;2022-12-24T14:01:16;11.30;;;4.47;;
6376;SDS011;3221;48.858;10.128;2022-12-24T14:03:53;10.20;;;5.07;;
6376;SDS011;3221;48.858;10.128;2022-12-24T14:06:25;13.63;;;6.00;;
6376;SDS011;3221;48.858;10.128;2022-12-24T14:08:55;11.27;;;5.53;;
6376;SDS011;3221;48.858;10.128;2022-12-24T14:12:12;14.00;;;6.47;;
6376;SDS011;3221;48.858;10.128;2022-12-24T14:14:25;15.30;;;6.83;;
6376;SDS011;3221;48.858;10.128;2022-12-24T14:16:54;12.77;;;7.60;;
6376;SDS011;3221;48.858;10.128;2022-12-24T14:19:37;13.00;;;6.87;;
6376;SDS011;3221;48.858;10.128;2022-12-24T14:24:41;12.17;;;6.20;;
6376;SDS011;3221;48.858;10.128;2022-12-24T14:30:03;11.43;;;4.40;;
6376;SDS011;3221;48.858;10.128;2022-12-24T14:32:41;11.63;;;4.70;;
6376;SDS011;3221;48.858;10.128;2022-12-24T14:40:36;7.77;;;2.97;;
6376;SDS011;3221;48.858;10.128;2022-12-24T14:46:28;12.63;;;3.30;;
6376;SDS011;3221;48.858;10.128;2022-12-24T14:51:59;9.80;;;2.90;;
6376;SDS011;3221;48.858;10.128;2022-12-24T15:00:50;7.30;;;2.80;;
6376;SDS011;3221;48.858;10.128;2022-12-24T15:03:21;10.40;;;3.40;;
6376;SDS011;3221;48.858;10.128;2022-12-24T15:05:54;8.03;;;2.97;;
6376;SDS011;3221;48.858;10.128;2022-12-24T15:08:31;8.40;;;3.07;;
6376;SDS011;3221;48.858;10.128;2022-12-24T15:11:04;13.30;;;4.40;;
6376;SDS011;3221;48.858;10.128;2022-12-24T15:16:04;13.63;;;4.47;;
6376;SDS011;3221;48.858;10.128;2022-12-24T15:18:35;9.63;;;4.23;;
6376;SDS011;3221;48.858;10.128;2022-12-24T15:21:13;10.30;;;4.13;;
6376;SDS011;3221;48.858;10.128;2022-12-24T15:23:44;8.80;;;3.70;;
6376;SDS011;3221;48.858;10.128;2022-12-24T15:26:29;12.10;;;5.87;;
6376;SDS011;3221;48.858;10.128;2022-12-24T15:28:58;12.63;;;4.77;;
6376;SDS011;3221;48.858;10.128;2022-12-24T15:31:29;13.47;;;4.90;;
6376;SDS011;3221;48.858;10.128;2022-12-24T15:33:57;9.90;;;5.00;;
6376;SDS011;3221;48.858;10.128;2022-12-24T15:36:26;15.23;;;6.63;;
6376;SDS011;3221;48.858;10.128;2022-12-24T15:39:00;11.87;;;5.80;;
6376;SDS011;3221;48.858;10.128;2022-12-24T15:41:31;12.10;;;4.67;;
6376;SDS011;3221;48.858;10.128;2022-12-24T15:44:03;10.97;;;5.57;;
6376;SDS011;3221;48.858;10.128;2022-12-24T15:46:30;11.13;;;4.70;;
6376;SDS011;3221;48.858;10.128;2022-12-24T15:48:59;9.63;;;4.70;;
6376;SDS011;3221;48.858;10.128;2022-12-24T15:51:32;13.00;;;4.10;;
6376;SDS011;3221;48.858;10.128;2022-12-24T15:54:09;7.80;;;3.53;;
6376;SDS011;3221;48.858;10.128;2022-12-24T15:56:41;8.73;;;4.13;;
6376;SDS011;3221;48.858;10.128;2022-12-24T15:59:31;11.97;;;4.00;;
6376;SDS011;3221;48.858;10.128;2022-12-24T16:08:01;8.03;;;3.40;;
6376;SDS011;3221;48.858;10.128;2022-12-24T16:10:35;8.43;;;3.30;;
6376;SDS011;3221;48.858;10.128;2022-12-24T16:15:45;9.23;;;3.27;;
6376;SDS011;3221;48.858;10.128;2022-12-24T16:18:21;7.30;;;3.00;;
6376;SDS011;3221;48.858;10.128;2022-12-24T16:20:57;9.90;;;3.00;;
6376;SDS011;3221;48.858;10.128;2022-12-24T16:23:25;6.83;;;3.10;;
6376;SDS011;3221;48.858;10.128;2022-12-24T16:25:57;6.50;;;2.53;;
6376;SDS011;3221;48.858;10.128;2022-12-24T16:28:25;7.50;;;2.70;;
6376;SDS011;3221;48.858;10.128;2022-12-24T16:30:52;6.00;;;3.20;;
6376;SDS011;3221;48.858;10.128;2022-12-24T16:33:21;10.07;;;3.13;;
6376;SDS011;3221;48.858;10.128;2022-12-24T16:35:49;9.33;;;2.80;;
6376;SDS011;3221;48.858;10.128;2022-12-24T16:38:16;9.07;;;3.37;;
6376;SDS011;3221;48.858;10.128;2022-12-24T16:40:42;8.33;;;2.93;;
6376;SDS011;3221;48.858;10.128;2022-12-24T16:43:09;7.53;;;2.70;;
6376;SDS011;3221;48.858;10.128;2022-12-24T16:46:09;11.33;;;3.23;;
6376;SDS011;3221;48.858;10.128;2022-12-24T16:48:38;8.17;;;3.10;;
6376;SDS011;3221;48.858;10.128;2022-12-24T16:51:05;7.53;;;2.90;;
6376;SDS011;3221;48.858;10.128;2022-12-24T16:53:32;6.50;;;2.90;;
6376;SDS011;3221;48.858;10.128;2022-12-24T16:55:59;6.97;;;3.00;;
6376;SDS011;3221;48.858;10.128;2022-12-24T16:58:26;13.83;;;5.90;;
6376;SDS011;3221;48.858;10.128;2022-12-24T17:00:55;14.43;;;5.87;;
6376;SDS011;3221;48.858;10.128;2022-12-24T17:03:23;10.37;;;5.40;;
6376;SDS011;3221;48.858;10.128;2022-12-24T17:05:50;12.67;;;6.00;;
6376;SDS011;3221;48.858;10.128;2022-12-24T17:08:17;14.53;;;5.87;;
6376;SDS011;3221;48.858;10.128;2022-12-24T17:10:50;25.73;;;11.77;;
6376;SDS011;3221;48.858;10.128;2022-12-24T17:13:17;16.87;;;7.83;;
6376;SDS011;3221;48.858;10.128;2022-12-24T17:15:44;14.93;;;7.37;;
6376;SDS011;3221;48.858;10.128;2022-12-24T17:18:11;15.77;;;7.50;;
6376;SDS011;3221;48.858;10.128;2022-12-24T17:20:38;16.30;;;7.90;;
6376;SDS011;3221;48.858;10.128;2022-12-24T17:23:05;14.53;;;7.90;;
6376;SDS011;3221;48.858;10.128;2022-12-24T17:25:31;14.50;;;6.53;;
6376;SDS011;3221;48.858;10.128;2022-12-24T17:28:01;10.80;;;5.47;;
6376;SDS011;3221;48.858;10.128;2022-12-24T17:30:27;11.63;;;4.33;;
6376;SDS011;3221;48.858;10.128;2022-12-24T17:32:54;6.77;;;3.60;;
6376;SDS011;3221;48.858;10.128;2022-12-24T17:35:21;6.73;;;3.70;;
6376;SDS011;3221;48.858;10.128;2022-12-24T17:37:48;7.70;;;3.37;;
6376;SDS011;3221;48.858;10.128;2022-12-24T17:40:14;6.60;;;3.30;;
6376;SDS011;3221;48.858;10.128;2022-12-24T17:42:41;5.57;;;3.10;;
6376;SDS011;3221;48.858;10.128;2022-12-24T17:45:08;9.10;;;3.40;;
6376;SDS011;3221;48.858;10.128;2022-12-24T17:47:35;6.33;;;3.50;;
6376;SDS011;3221;48.858;10.128;2022-12-24T17:50:02;6.80;;;3.00;;
6376;SDS011;3221;48.858;10.128;2022-12-24T17:52:29;7.33;;;3.33;;